sensor_id;sensor_type;location;lat;lon;timestamp;pressure;altitude;pressure_sealevel;temperature;humidity
28310;BME280;15571;50.974;13.936;2023-02-17T00:02:17;100645.09;;;3.93;100.00
28310;BME280;15571;50.974;13.936;2023-02-17T00:05:19;100641.69;;;3.94;100.00
28310;BME280;15571;50.974;13.936;2023-02-17T00:08:24;100638.22;;;3.93;100.00
28310;BME280;15571;50.974;13.936;2023-02-17T00:11:28;100644.22;;;3.91;100.00
28310;BME280;15571;50.974;13.936;2023-02-17T00:14:32;100642.38;;;3.88;100.00
28310;BME280;15571;50.974;13.936;2023-02-17T00:17:34;100653.63;;;3.87;100.00
28310;BME280;15571;50.974;13.936;2023-02-17T00:20:36;100653.50;;;3.84;100.00
28310;BME280;15571;50.974;13.936;2023-02-17T00:23:37;100651.84;;;3.86;100.00
28310;BME280;15571;50.974;13.936;2023-02-17T00:26:39;100658.72;;;3.85;100.00
28310;BME280;15571;50.974;13.936;2023-02-17T00:29:43;100663.03;;;3.85;100.00
28310;BME280;15571;50.974;13.936;2023-02-17T00:32:44;100662.34;;;3.91;100.00
28310;BME280;15571;50.974;13.936;2023-02-17T00:35:47;100649.31;;;3.89;100.00
28310;BME280;15571;50.974;13.936;2023-02-17T00:38:48;100645.09;;;3.93;100.00
28310;BME280;15571;50.974;13.936;2023-02-17T00:41:54;100642.63;;;3.96;100.00
28310;BME280;15571;50.974;13.936;2023-02-17T00:44:58;100647.81;;;3.97;100.00
28310;BME280;15571;50.974;13.936;2023-02-17T00:48:00;100647.09;;;4.01;100.00
28310;BME280;15571;50.974;13.936;2023-02-17T00:51:01;100634.13;;;4.01;100.00
28310;BME280;15571;50.974;13.936;2023-02-17T00:54:08;100638.41;;;3.99;100.00
28310;BME280;15571;50.974;13.936;2023-02-17T00:57:10;100641.88;;;4.00;100.00
28310;BME280;15571;50.974;13.936;2023-02-17T01:00:14;100637.56;;;4.00;100.00
28310;BME280;15571;50.974;13.936;2023-02-17T01:03:17;100635.81;;;3.99;100.00
28310;BME280;15571;50.974;13.936;2023-02-17T01:06:20;100628.88;;;3.98;100.00
28310;BME280;15571;50.974;13.936;2023-02-17T01:09:23;100620.22;;;3.98;100.00
28310;BME280;15571;50.974;13.936;2023-02-17T01:12:27;100629.66;;;3.96;100.00
28310;BME280;15571;50.974;13.936;2023-02-17T01:15:30;100629.66;;;3.96;100.00
28310;BME280;15571;50.974;13.936;2023-02-17T01:18:32;100628.88;;;3.98;100.00
28310;BME280;15571;50.974;13.936;2023-02-17T01:21:34;100625.41;;;3.98;100.00
28310;BME280;15571;50.974;13.936;2023-02-17T01:24:37;100611.63;;;3.99;100.00
28310;BME280;15571;50.974;13.936;2023-02-17T01:27:39;100613.41;;;4.01;100.00
28310;BME280;15571;50.974;13.936;2023-02-17T01:30:42;100608.25;;;4.03;100.00
28310;BME280;15571;50.974;13.936;2023-02-17T01:33:47;100618.59;;;4.01;100.00
28310;BME280;15571;50.974;13.936;2023-02-17T01:36:49;100595.28;;;4.01;100.00
28310;BME280;15571;50.974;13.936;2023-02-17T01:39:53;100604.00;;;4.05;100.00
28310;BME280;15571;50.974;13.936;2023-02-17T01:42:55;100591.97;;;4.07;100.00
28310;BME280;15571;50.974;13.936;2023-02-17T01:46:00;100586.91;;;4.10;100.00
28310;BME280;15571;50.974;13.936;2023-02-17T01:49:02;100584.34;;;4.12;100.00
28310;BME280;15571;50.974;13.936;2023-02-17T01:52:07;100590.38;;;4.12;100.00
28310;BME280;15571;50.974;13.936;2023-02-17T01:55:11;100577.41;;;4.12;100.00
28310;BME280;15571;50.974;13.936;2023-02-17T01:58:16;100578.31;;;4.13;100.00
28310;BME280;15571;50.974;13.936;2023-02-17T02:01:24;100574.00;;;4.13;100.00
28310;BME280;15571;50.974;13.936;2023-02-17T02:04:28;100575.72;;;4.13;100.00
28310;BME280;15571;50.974;13.936;2023-02-17T02:07:32;100561.94;;;4.14;100.00
28310;BME280;15571;50.974;13.936;2023-02-17T02:10:35;100561.09;;;4.15;100.00
28310;BME280;15571;50.974;13.936;2023-02-17T02:13:39;100545.59;;;4.16;100.00
28310;BME280;15571;50.974;13.936;2023-02-17T02:16:46;100537.78;;;4.15;100.00
28310;BME280;15571;50.974;13.936;2023-02-17T02:19:57;100536.94;;;4.16;100.00
28310;BME280;15571;50.974;13.936;2023-02-17T02:23:24;100532.63;;;4.16;100.00
28310;BME280;15571;50.974;13.936;2023-02-17T02:26:43;100527.44;;;4.16;100.00
28310;BME280;15571;50.974;13.936;2023-02-17T02:33:20;100516.28;;;4.19;100.00
28310;BME280;15571;50.974;13.936;2023-02-17T02:36:24;100515.44;;;4.20;100.00
28310;BME280;15571;50.974;13.936;2023-02-17T02:39:29;100506.84;;;4.21;100.00
28310;BME280;15571;50.974;13.936;2023-02-17T02:42:34;100512.09;;;4.24;100.00
28310;BME280;15571;50.974;13.936;2023-02-17T02:45:36;100505.22;;;4.26;100.00
28310;BME280;15571;50.974;13.936;2023-02-17T02:48:45;100498.31;;;4.25;100.00
28310;BME280;15571;50.974;13.936;2023-02-17T02:51:48;100488.78;;;4.24;100.00
28310;BME280;15571;50.974;13.936;2023-02-17T02:54:56;100488.72;;;4.23;100.00
28310;BME280;15571;50.974;13.936;2023-02-17T02:58:05;100478.34;;;4.23;100.00
28310;BME280;15571;50.974;13.936;2023-02-17T03:01:08;100473.03;;;4.16;100.00
28310;BME280;15571;50.974;13.936;2023-02-17T03:04:16;100481.63;;;4.14;100.00
28310;BME280;15571;50.974;13.936;2023-02-17T03:07:21;100482.44;;;4.11;100.00
28310;BME280;15571;50.974;13.936;2023-02-17T03:10:25;100486.75;;;4.12;100.00
28310;BME280;15571;50.974;13.936;2023-02-17T03:13:27;100472.91;;;4.10;100.00
28310;BME280;15571;50.974;13.936;2023-02-17T03:16:29;100455.72;;;4.15;100.00
28310;BME280;15571;50.974;13.936;2023-02-17T03:19:32;100454.06;;;4.17;100.00
28310;BME280;15571;50.974;13.936;2023-02-17T03:22:35;100469.72;;;4.22;100.00
28310;BME280;15571;50.974;13.936;2023-02-17T03:25:37;100483.53;;;4.23;100.00
28310;BME280;15571;50.974;13.936;2023-02-17T03:28:39;100474.13;;;4.26;100.00
28310;BME280;15571;50.974;13.936;2023-02-17T03:31:41;100483.63;;;4.26;100.00
28310;BME280;15571;50.974;13.936;2023-02-17T03:34:44;100476.88;;;4.32;100.00
28310;BME280;15571;50.974;13.936;2023-02-17T03:37:46;100464.88;;;4.36;100.00
28310;BME280;15571;50.974;13.936;2023-02-17T03:40:48;100465.78;;;4.38;100.00
28310;BME280;15571;50.974;13.936;2023-02-17T03:43:50;100468.44;;;4.41;100.00
28310;BME280;15571;50.974;13.936;2023-02-17T03:46:52;100464.16;;;4.43;100.00
28310;BME280;15571;50.974;13.936;2023-02-17T03:49:55;100464.16;;;4.43;100.00
28310;BME280;15571;50.974;13.936;2023-02-17T03:52:57;100459.88;;;4.44;100.00
28310;BME280;15571;50.974;13.936;2023-02-17T03:55:59;100454.72;;;4.45;100.00
28310;BME280;15571;50.974;13.936;2023-02-17T03:59:00;100451.38;;;4.49;100.00
28310;BME280;15571;50.974;13.936;2023-02-17T04:02:03;100444.56;;;4.55;100.00
28310;BME280;15571;50.974;13.936;2023-02-17T04:05:07;100448.13;;;4.60;100.00
28310;BME280;15571;50.974;13.936;2023-02-17T04:08:08;100448.19;;;4.63;100.00
28310;BME280;15571;50.974;13.936;2023-02-17T04:11:10;100450.03;;;4.67;100.00
28310;BME280;15571;50.974;13.936;2023-02-17T04:14:12;100448.38;;;4.72;100.00
28310;BME280;15571;50.974;13.936;2023-02-17T04:17:14;100445.03;;;4.76;100.00
28310;BME280;15571;50.974;13.936;2023-02-17T04:20:18;100444.25;;;4.80;100.00
28310;BME280;15571;50.974;13.936;2023-02-17T04:23:19;100440.03;;;4.86;100.00
28310;BME280;15571;50.974;13.936;2023-02-17T04:26:21;100439.22;;;4.88;100.00
28310;BME280;15571;50.974;13.936;2023-02-17T04:29:23;100444.50;;;4.93;100.00
28310;BME280;15571;50.974;13.936;2023-02-17T04:32:27;100438.56;;;4.97;100.00
28310;BME280;15571;50.974;13.936;2023-02-17T04:35:31;100443.09;;;5.07;100.00
28310;BME280;15571;50.974;13.936;2023-02-17T04:38:33;100432.00;;;5.14;100.00
28310;BME280;15571;50.974;13.936;2023-02-17T04:41:35;100433.84;;;5.22;100.00
28310;BME280;15571;50.974;13.936;2023-02-17T04:44:37;100429.59;;;5.25;100.00
28310;BME280;15571;50.974;13.936;2023-02-17T04:47:39;100436.63;;;5.31;100.00
28310;BME280;15571;50.974;13.936;2023-02-17T04:50:42;100431.47;;;5.33;100.00
28310;BME280;15571;50.974;13.936;2023-02-17T04:53:44;100421.13;;;5.34;100.00
28310;BME280;15571;50.974;13.936;2023-02-17T04:56:46;100416.78;;;5.33;100.00
28310;BME280;15571;50.974;13.936;2023-02-17T04:59:49;100422.03;;;5.36;100.00
28310;BME280;15571;50.974;13.936;2023-02-17T05:02:51;100418.59;;;5.37;100.00
28310;BME280;15571;50.974;13.936;2023-02-17T05:05:54;100419.47;;;5.39;100.00
28310;BME280;15571;50.974;13.936;2023-02-17T05:08:56;100412.56;;;5.40;100.00
28310;BME280;15571;50.974;13.936;2023-02-17T05:11:58;100415.19;;;5.41;100.00
28310;BME280;15571;50.974;13.936;2023-02-17T05:14:59;100407.53;;;5.48;100.00
28310;BME280;15571;50.974;13.936;2023-02-17T05:18:01;100402.38;;;5.51;100.00
28310;BME280;15571;50.974;13.936;2023-02-17T05:21:06;100392.91;;;5.54;100.00
28310;BME280;15571;50.974;13.936;2023-02-17T05:24:08;100403.38;;;5.59;100.00
28310;BME280;15571;50.974;13.936;2023-02-17T05:27:10;100392.19;;;5.61;100.00
28310;BME280;15571;50.974;13.936;2023-02-17T05:30:12;100398.25;;;5.62;100.00
28310;BME280;15571;50.974;13.936;2023-02-17T05:33:14;100400.91;;;5.65;100.00
28310;BME280;15571;50.974;13.936;2023-02-17T05:36:17;100401.81;;;5.67;100.00
28310;BME280;15571;50.974;13.936;2023-02-17T05:39:21;100394.91;;;5.69;100.00
28310;BME280;15571;50.974;13.936;2023-02-17T05:42:23;100390.63;;;5.71;100.00
28310;BME280;15571;50.974;13.936;2023-02-17T05:45:28;100388.91;;;5.72;100.00
28310;BME280;15571;50.974;13.936;2023-02-17T05:48:29;100390.66;;;5.73;100.00
28310;BME280;15571;50.974;13.936;2023-02-17T05:51:33;100398.41;;;5.71;100.00
28310;BME280;15571;50.974;13.936;2023-02-17T05:54:35;100391.47;;;5.70;100.00
28310;BME280;15571;50.974;13.936;2023-02-17T05:57:36;100385.41;;;5.70;100.00
28310;BME280;15571;50.974;13.936;2023-02-17T06:00:38;100397.47;;;5.66;100.00
28310;BME280;15571;50.974;13.936;2023-02-17T06:03:40;100387.03;;;5.65;100.00
28310;BME280;15571;50.974;13.936;2023-02-17T06:06:44;100383.50;;;5.61;100.00
28310;BME280;15571;50.974;13.936;2023-02-17T06:09:45;100378.31;;;5.59;100.00
28310;BME280;15571;50.974;13.936;2023-02-17T06:12:47;100387.69;;;5.53;100.00
28310;BME280;15571;50.974;13.936;2023-02-17T06:15:51;100382.41;;;5.47;100.00
28310;BME280;15571;50.974;13.936;2023-02-17T06:18:53;100385.78;;;5.42;100.00
28310;BME280;15571;50.974;13.936;2023-02-17T06:21:56;100388.31;;;5.39;100.00
28310;BME280;15571;50.974;13.936;2023-02-17T06:24:59;100389.13;;;5.37;100.00
28310;BME280;15571;50.974;13.936;2023-02-17T06:28:01;100393.38;;;5.32;100.00
28310;BME280;15571;50.974;13.936;2023-02-17T06:31:03;100383.84;;;5.29;100.00
28310;BME280;15571;50.974;13.936;2023-02-17T06:34:08;100381.22;;;5.29;100.00
28310;BME280;15571;50.974;13.936;2023-02-17T06:37:11;100384.69;;;5.29;100.00
28310;BME280;15571;50.974;13.936;2023-02-17T06:40:14;100389.91;;;5.31;100.00
28310;BME280;15571;50.974;13.936;2023-02-17T06:43:19;100390.81;;;5.33;100.00
28310;BME280;15571;50.974;13.936;2023-02-17T06:46:24;100391.69;;;5.34;100.00
28310;BME280;15571;50.974;13.936;2023-02-17T06:49:28;100388.22;;;5.33;100.00
28310;BME280;15571;50.974;13.936;2023-02-17T06:52:34;100385.63;;;5.33;100.00
28310;BME280;15571;50.974;13.936;2023-02-17T06:55:36;100384.78;;;5.36;100.00
28310;BME280;15571;50.974;13.936;2023-02-17T06:58:39;100386.53;;;5.37;100.00
28310;BME280;15571;50.974;13.936;2023-02-17T07:01:40;100372.75;;;5.39;100.00
28310;BME280;15571;50.974;13.936;2023-02-17T07:04:42;100364.16;;;5.42;100.00
28310;BME280;15571;50.974;13.936;2023-02-17T07:07:46;100371.97;;;5.43;100.00
28310;BME280;15571;50.974;13.936;2023-02-17T07:10:47;100359.88;;;5.45;100.00
28310;BME280;15571;50.974;13.936;2023-02-17T07:13:49;100366.00;;;5.49;100.00
28310;BME280;15571;50.974;13.936;2023-02-17T07:16:51;100365.19;;;5.52;100.00
28310;BME280;15571;50.974;13.936;2023-02-17T07:19:53;100360.19;;;5.64;100.00
28310;BME280;15571;50.974;13.936;2023-02-17T07:22:56;100358.66;;;5.75;100.00
28310;BME280;15571;50.974;13.936;2023-02-17T07:26:00;100365.84;;;5.92;100.00
28310;BME280;15571;50.974;13.936;2023-02-17T07:29:02;100373.03;;;6.05;100.00
28310;BME280;15571;50.974;13.936;2023-02-17T07:32:04;100359.31;;;6.16;100.00
28310;BME280;15571;50.974;13.936;2023-02-17T07:35:07;100365.53;;;6.27;100.00
28310;BME280;15571;50.974;13.936;2023-02-17T07:38:12;100384.72;;;6.35;100.00
28310;BME280;15571;50.974;13.936;2023-02-17T07:41:14;100369.25;;;6.45;100.00
28310;BME280;15571;50.974;13.936;2023-02-17T07:44:17;100363.31;;;6.55;100.00
28310;BME280;15571;50.974;13.936;2023-02-17T07:47:18;100368.66;;;6.64;100.00
28310;BME280;15571;50.974;13.936;2023-02-17T07:50:20;100345.28;;;6.69;100.00
28310;BME280;15571;50.974;13.936;2023-02-17T07:53:25;100347.06;;;6.73;100.00
28310;BME280;15571;50.974;13.936;2023-02-17T07:56:27;100342.81;;;6.78;100.00
28310;BME280;15571;50.974;13.936;2023-02-17T07:59:30;100341.97;;;6.82;100.00
28310;BME280;15571;50.974;13.936;2023-02-17T08:02:32;100338.56;;;6.87;100.00
28310;BME280;15571;50.974;13.936;2023-02-17T08:05:34;100337.75;;;6.92;100.00
28310;BME280;15571;50.974;13.936;2023-02-17T08:08:40;100329.09;;;6.96;100.00
28310;BME280;15571;50.974;13.936;2023-02-17T08:11:59;100338.72;;;7.02;100.00
28310;BME280;15571;50.974;13.936;2023-02-17T08:15:21;100327.47;;;7.05;100.00
28310;BME280;15571;50.974;13.936;2023-02-17T08:18:24;100336.19;;;7.08;100.00
28310;BME280;15571;50.974;13.936;2023-02-17T08:21:26;100339.69;;;7.12;100.00
28310;BME280;15571;50.974;13.936;2023-02-17T08:24:29;100340.59;;;7.15;100.00
28310;BME280;15571;50.974;13.936;2023-02-17T08:27:31;100351.91;;;7.19;100.00
28310;BME280;15571;50.974;13.936;2023-02-17T08:30:33;100358.91;;;7.23;100.00
28310;BME280;15571;50.974;13.936;2023-02-17T08:33:35;100355.47;;;7.27;100.00
28310;BME280;15571;50.974;13.936;2023-02-17T08:36:49;100365.91;;;7.30;100.00
28310;BME280;15571;50.974;13.936;2023-02-17T08:39:55;100359.88;;;7.31;100.00
28310;BME280;15571;50.974;13.936;2023-02-17T08:42:59;100357.25;;;7.33;100.00
28310;BME280;15571;50.974;13.936;2023-02-17T08:46:07;100359.06;;;7.37;100.00
28310;BME280;15571;50.974;13.936;2023-02-17T08:49:16;100356.44;;;7.40;100.00
28310;BME280;15571;50.974;13.936;2023-02-17T08:52:18;100360.84;;;7.46;100.00
28310;BME280;15571;50.974;13.936;2023-02-17T08:58:53;100353.06;;;7.49;100.00
28310;BME280;15571;50.974;13.936;2023-02-17T09:01:58;100352.19;;;7.47;100.00
28310;BME280;15571;50.974;13.936;2023-02-17T09:05:00;100355.72;;;7.52;100.00
28310;BME280;15571;50.974;13.936;2023-02-17T09:08:02;100348.81;;;7.54;100.00
28310;BME280;15571;50.974;13.936;2023-02-17T09:11:04;100341.88;;;7.59;100.00
28310;BME280;15571;50.974;13.936;2023-02-17T09:14:08;100337.53;;;7.60;100.00
28310;BME280;15571;50.974;13.936;2023-02-17T09:17:12;100333.22;;;7.62;100.00
28310;BME280;15571;50.974;13.936;2023-02-17T09:20:14;100320.25;;;7.68;100.00
28310;BME280;15571;50.974;13.936;2023-02-17T09:23:16;100317.66;;;7.70;100.00
28310;BME280;15571;50.974;13.936;2023-02-17T09:26:18;100310.72;;;7.72;100.00
28310;BME280;15571;50.974;13.936;2023-02-17T09:29:21;100308.13;;;7.72;100.00
28310;BME280;15571;50.974;13.936;2023-02-17T09:32:23;100315.06;;;7.74;100.00
28310;BME280;15571;50.974;13.936;2023-02-17T09:35:25;100307.25;;;7.76;100.00
28310;BME280;15571;50.974;13.936;2023-02-17T09:38:27;100320.31;;;7.79;100.00
28310;BME280;15571;50.974;13.936;2023-02-17T09:41:30;100303.84;;;7.86;100.00
28310;BME280;15571;50.974;13.936;2023-02-17T09:44:39;100310.84;;;7.92;100.00
28310;BME280;15571;50.974;13.936;2023-02-17T09:47:45;100305.69;;;8.00;100.00
28310;BME280;15571;50.974;13.936;2023-02-17T09:50:49;100307.47;;;8.07;100.00
28310;BME280;15571;50.974;13.936;2023-02-17T09:53:56;100301.44;;;8.13;100.00
28310;BME280;15571;50.974;13.936;2023-02-17T09:57:04;100293.63;;;8.16;100.00
28310;BME280;15571;50.974;13.936;2023-02-17T10:00:12;100283.22;;;8.23;100.00
28310;BME280;15571;50.974;13.936;2023-02-17T10:03:15;100282.38;;;8.28;100.00
28310;BME280;15571;50.974;13.936;2023-02-17T10:06:20;100278.03;;;8.33;100.00
28310;BME280;15571;50.974;13.936;2023-02-17T10:09:26;100281.56;;;8.38;100.00
28310;BME280;15571;50.974;13.936;2023-02-17T10:12:29;100273.75;;;8.41;100.00
28310;BME280;15571;50.974;13.936;2023-02-17T10:15:39;100267.66;;;8.45;100.00
28310;BME280;15571;50.974;13.936;2023-02-17T10:18:47;100262.53;;;8.51;100.00
28310;BME280;15571;50.974;13.936;2023-02-17T10:21:50;100257.31;;;8.57;100.00
28310;BME280;15571;50.974;13.936;2023-02-17T10:24:59;100252.09;;;8.64;100.00
28310;BME280;15571;50.974;13.936;2023-02-17T10:28:03;100262.56;;;8.67;100.00
28310;BME280;15571;50.974;13.936;2023-02-17T10:31:18;100259.94;;;8.68;100.00
28310;BME280;15571;50.974;13.936;2023-02-17T10:34:22;100260.84;;;8.70;100.00
28310;BME280;15571;50.974;13.936;2023-02-17T10:37:27;100253.91;;;8.77;100.00
28310;BME280;15571;50.974;13.936;2023-02-17T10:40:35;100246.09;;;8.80;100.00
28310;BME280;15571;50.974;13.936;2023-02-17T10:43:37;100234.78;;;8.81;100.00
28310;BME280;15571;50.974;13.936;2023-02-17T10:46:40;100213.00;;;8.82;100.00
28310;BME280;15571;50.974;13.936;2023-02-17T10:49:44;100206.06;;;8.89;100.00
28310;BME280;15571;50.974;13.936;2023-02-17T10:52:47;100198.22;;;8.94;100.00
28310;BME280;15571;50.974;13.936;2023-02-17T10:55:53;100186.94;;;8.98;100.00
28310;BME280;15571;50.974;13.936;2023-02-17T10:59:07;100181.72;;;9.02;100.00
28310;BME280;15571;50.974;13.936;2023-02-17T11:02:18;100184.31;;;9.07;100.00
28310;BME280;15571;50.974;13.936;2023-02-17T11:05:24;100175.59;;;9.11;100.00
28310;BME280;15571;50.974;13.936;2023-02-17T11:08:28;100174.75;;;9.14;100.00
28310;BME280;15571;50.974;13.936;2023-02-17T11:11:31;100164.31;;;9.14;100.00
28310;BME280;15571;50.974;13.936;2023-02-17T11:14:34;100166.91;;;9.15;100.00
28310;BME280;15571;50.974;13.936;2023-02-17T11:17:38;100149.47;;;9.14;100.00
28310;BME280;15571;50.974;13.936;2023-02-17T11:20:41;100138.19;;;9.14;100.00
28310;BME280;15571;50.974;13.936;2023-02-17T11:23:46;100131.22;;;9.13;100.00
28310;BME280;15571;50.974;13.936;2023-02-17T11:26:56;100131.22;;;9.17;100.00
28310;BME280;15571;50.974;13.936;2023-02-17T11:30:05;100132.94;;;9.17;100.00
28310;BME280;15571;50.974;13.936;2023-02-17T11:33:13;100131.22;;;9.16;100.00
28310;BME280;15571;50.974;13.936;2023-02-17T11:36:21;100109.44;;;9.12;100.00
28310;BME280;15571;50.974;13.936;2023-02-17T11:39:24;100114.69;;;9.11;100.00
28310;BME280;15571;50.974;13.936;2023-02-17T11:42:56;100106.84;;;9.14;100.00
28310;BME280;15571;50.974;13.936;2023-02-17T18:30:43;99922.28;;;11.84;100.00
28310;BME280;15571;50.974;13.936;2023-02-17T18:33:45;99915.19;;;11.89;100.00
28310;BME280;15571;50.974;13.936;2023-02-17T18:36:47;99925.59;;;11.95;100.00
28310;BME280;15571;50.974;13.936;2023-02-17T18:39:49;99932.56;;;11.96;100.00
28310;BME280;15571;50.974;13.936;2023-02-17T18:42:54;99948.31;;;11.99;100.00
28310;BME280;15571;50.974;13.936;2023-02-17T18:45:57;99955.28;;;12.01;100.00
28310;BME280;15571;50.974;13.936;2023-02-17T18:49:07;99970.13;;;12.00;100.00
28310;BME280;15571;50.974;13.936;2023-02-17T18:52:09;99984.22;;;11.94;100.00
28310;BME280;15571;50.974;13.936;2023-02-17T18:55:16;100005.25;;;11.88;100.00
28310;BME280;15571;50.974;13.936;2023-02-17T18:58:19;100009.78;;;11.77;100.00
28310;BME280;15571;50.974;13.936;2023-02-17T19:01:32;100020.41;;;11.67;100.00
28310;BME280;15571;50.974;13.936;2023-02-17T19:04:37;100010.97;;;11.54;100.00
28310;BME280;15571;50.974;13.936;2023-02-17T19:07:47;100013.59;;;11.52;100.00
28310;BME280;15571;50.974;13.936;2023-02-17T19:10:49;100018.97;;;11.45;100.00
28310;BME280;15571;50.974;13.936;2023-02-17T19:13:51;100017.34;;;11.34;100.00
28310;BME280;15571;50.974;13.936;2023-02-17T19:16:54;100027.00;;;11.29;100.00
28310;BME280;15571;50.974;13.936;2023-02-17T19:20:02;100036.66;;;11.23;100.00
28310;BME280;15571;50.974;13.936;2023-02-17T19:23:14;100032.34;;;11.17;100.00
28310;BME280;15571;50.974;13.936;2023-02-17T19:26:23;100033.28;;;11.14;100.00
28310;BME280;15571;50.974;13.936;2023-02-17T19:29:27;100033.31;;;11.10;100.00
28310;BME280;15571;50.974;13.936;2023-02-17T19:32:30;100040.38;;;11.04;100.00
28310;BME280;15571;50.974;13.936;2023-02-17T19:35:38;100026.44;;;11.01;100.00
28310;BME280;15571;50.974;13.936;2023-02-17T19:38:41;100019.47;;;10.98;100.00
28310;BME280;15571;50.974;13.936;2023-02-17T19:41:46;100042.22;;;10.93;100.00
28310;BME280;15571;50.974;13.936;2023-02-17T19:44:48;100033.53;;;10.89;100.00
28310;BME280;15571;50.974;13.936;2023-02-17T19:47:52;100036.19;;;10.86;100.00
28310;BME280;15571;50.974;13.936;2023-02-17T19:50:57;100025.75;;;10.82;100.00
28310;BME280;15571;50.974;13.936;2023-02-17T19:54:04;100015.31;;;10.77;100.00
28310;BME280;15571;50.974;13.936;2023-02-17T19:57:06;100030.13;;;10.80;100.00
28310;BME280;15571;50.974;13.936;2023-02-17T20:00:08;100040.66;;;10.77;100.00
28310;BME280;15571;50.974;13.936;2023-02-17T20:03:12;100026.66;;;10.79;100.00
28310;BME280;15571;50.974;13.936;2023-02-17T20:06:14;100022.28;;;10.80;100.00
28310;BME280;15571;50.974;13.936;2023-02-17T20:09:21;100034.47;;;10.84;100.00
28310;BME280;15571;50.974;13.936;2023-02-17T20:12:26;100025.72;;;10.83;100.00
28310;BME280;15571;50.974;13.936;2023-02-17T20:15:28;100042.31;;;10.84;100.00
28310;BME280;15571;50.974;13.936;2023-02-17T20:18:34;100042.31;;;10.84;100.00
28310;BME280;15571;50.974;13.936;2023-02-17T20:21:38;100019.63;;;10.86;100.00
28310;BME280;15571;50.974;13.936;2023-02-17T20:24:44;100022.22;;;10.86;100.00
28310;BME280;15571;50.974;13.936;2023-02-17T20:27:46;100026.59;;;10.87;100.00
28310;BME280;15571;50.974;13.936;2023-02-17T20:30:48;100017.88;;;10.85;100.00
28310;BME280;15571;50.974;13.936;2023-02-17T20:33:52;100021.38;;;10.84;100.00
28310;BME280;15571;50.974;13.936;2023-02-17T20:36:57;100022.25;;;10.83;100.00
28310;BME280;15571;50.974;13.936;2023-02-17T20:40:03;100030.09;;;10.83;100.00
28310;BME280;15571;50.974;13.936;2023-02-17T20:43:07;100035.31;;;10.84;100.00
28310;BME280;15571;50.974;13.936;2023-02-17T20:46:15;100041.38;;;10.88;100.00
28310;BME280;15571;50.974;13.936;2023-02-17T20:49:24;100042.22;;;10.93;100.00
28310;BME280;15571;50.974;13.936;2023-02-17T20:52:26;100031.75;;;10.93;100.00
28310;BME280;15571;50.974;13.936;2023-02-17T20:55:31;100037.84;;;10.95;100.00
28310;BME280;15571;50.974;13.936;2023-02-17T20:58:33;100052.69;;;10.96;100.00
28310;BME280;15571;50.974;13.936;2023-02-17T21:01:35;100055.31;;;10.96;100.00
28310;BME280;15571;50.974;13.936;2023-02-17T21:04:38;100052.69;;;10.96;100.00
28310;BME280;15571;50.974;13.936;2023-02-17T21:07:43;100057.94;;;10.93;100.00
28310;BME280;15571;50.974;13.936;2023-02-17T21:10:45;100047.44;;;10.96;100.00
28310;BME280;15571;50.974;13.936;2023-02-17T21:13:47;100056.19;;;10.92;100.00
28310;BME280;15571;50.974;13.936;2023-02-17T21:16:49;100050.97;;;10.92;100.00
28310;BME280;15571;50.974;13.936;2023-02-17T21:19:52;100050.97;;;10.92;100.00
28310;BME280;15571;50.974;13.936;2023-02-17T21:22:54;100057.16;;;10.83;100.00
28310;BME280;15571;50.974;13.936;2023-02-17T21:26:01;100063.28;;;10.81;100.00
28310;BME280;15571;50.974;13.936;2023-02-17T21:29:06;100064.19;;;10.78;100.00
28310;BME280;15571;50.974;13.936;2023-02-17T21:32:08;100072.06;;;10.77;100.00
28310;BME280;15571;50.974;13.936;2023-02-17T21:35:15;100084.31;;;10.74;100.00
28310;BME280;15571;50.974;13.936;2023-02-17T21:38:21;100092.16;;;10.71;100.00
28310;BME280;15571;50.974;13.936;2023-02-17T21:41:23;100097.41;;;10.71;100.00
28310;BME280;15571;50.974;13.936;2023-02-17T21:44:27;100101.84;;;10.63;100.00
28310;BME280;15571;50.974;13.936;2023-02-17T21:47:54;100108.81;;;10.61;100.00
28310;BME280;15571;50.974;13.936;2023-02-17T21:51:03;100119.34;;;10.58;100.00
28310;BME280;15571;50.974;13.936;2023-02-17T21:54:05;100133.25;;;10.60;100.00
28310;BME280;15571;50.974;13.936;2023-02-17T21:57:08;100137.63;;;10.61;100.00
28310;BME280;15571;50.974;13.936;2023-02-17T22:00:12;100141.13;;;10.60;100.00
28310;BME280;15571;50.974;13.936;2023-02-17T22:03:24;100148.97;;;10.60;100.00
28310;BME280;15571;50.974;13.936;2023-02-17T22:06:32;100155.97;;;10.58;100.00
28310;BME280;15571;50.974;13.936;2023-02-17T22:09:43;100166.44;;;10.59;100.00
28310;BME280;15571;50.974;13.936;2023-02-17T22:12:45;100175.13;;;10.60;100.00
28310;BME280;15571;50.974;13.936;2023-02-17T22:15:55;100170.78;;;10.59;100.00
28310;BME280;15571;50.974;13.936;2023-02-17T22:18:58;100185.63;;;10.55;100.00
28310;BME280;15571;50.974;13.936;2023-02-17T22:22:02;100215.34;;;10.50;100.00
28310;BME280;15571;50.974;13.936;2023-02-17T22:25:07;100239.81;;;10.38;100.00
28310;BME280;15571;50.974;13.936;2023-02-17T22:28:09;100241.59;;;10.22;100.00
28310;BME280;15571;50.974;13.936;2023-02-17T22:31:11;100253.88;;;10.04;100.00
28310;BME280;15571;50.974;13.936;2023-02-17T22:34:15;100233.84;;;9.94;100.00
28310;BME280;15571;50.974;13.936;2023-02-17T22:37:18;100240.00;;;9.77;100.00
28310;BME280;15571;50.974;13.936;2023-02-17T22:40:26;100253.91;;;9.70;100.00